Time;durP1;ratioP1;P1;durP2;ratioP2;P2;SDS_P1;SDS_P2;PMS_P1;PMS_P2;Temp;Humidity;BMP_temperature;BMP_pressure;BME280_temperature;BME280_humidity;BME280_pressure;Samples;Min_cycle;Max_cycle;Signal;HPM_P1;HPM_P2
2022/03/27 00:00:38;;;;;;;43.30;23.92;;;;;;;8.58;51.89;101966.25;4870311;29;20072;-67
2022/03/27 00:03:06;;;;;;;46.85;24.40;;;;;;;8.59;52.28;101966.03;4870625;29;20583;-67
2022/03/27 00:05:35;;;;;;;41.22;21.83;;;;;;;8.56;51.66;101963.75;4877131;29;20056;-67
2022/03/27 00:08:03;;;;;;;43.63;24.38;;;;;;;8.55;53.10;101964.81;4877611;29;20053;-67
2022/03/27 00:11:23;;;;;;;44.97;22.40;;;;;;;8.59;51.86;101970.63;4878212;29;20057;-67
2022/03/27 00:13:21;;;;;;;45.05;22.10;;;;;;;8.57;51.83;101964.59;4877792;29;20064;-67
2022/03/27 00:15:49;;;;;;;40.20;22.08;;;;;;;8.55;52.08;101964.00;4877716;29;20053;-67
2022/03/27 00:18:16;;;;;;;41.20;22.73;;;;;;;8.56;51.96;101961.00;4877213;29;20049;-67
2022/03/27 00:20:44;;;;;;;38.55;21.77;;;;;;;8.51;52.39;101969.03;4877952;29;20057;-67
2022/03/27 00:23:12;;;;;;;40.13;20.83;;;;;;;8.46;52.21;101969.72;4877755;29;20053;-67
2022/03/27 00:25:40;;;;;;;42.22;21.45;;;;;;;8.51;51.38;101963.56;4876874;29;20492;-67
2022/03/27 00:28:08;;;;;;;41.15;21.95;;;;;;;8.44;51.50;101958.22;4877707;29;20389;-67
2022/03/27 00:30:36;;;;;;;41.28;22.45;;;;;;;8.36;52.18;101965.91;4876237;29;20049;-67
2022/03/27 00:33:05;;;;;;;42.70;21.50;;;;;;;8.36;51.42;101960.44;4877676;29;20084;-67
2022/03/27 00:35:32;;;;;;;40.55;22.15;;;;;;;8.29;51.81;101960.53;4878038;29;20045;-67
2022/03/27 00:38:00;;;;;;;39.08;21.48;;;;;;;8.21;52.10;101964.38;4878087;29;20060;-67
2022/03/27 00:40:28;;;;;;;41.75;21.67;;;;;;;8.15;52.35;101949.78;4877684;29;20428;-67
2022/03/27 00:42:56;;;;;;;42.33;20.80;;;;;;;8.17;52.69;101952.31;4877888;29;20048;-67
2022/03/27 00:45:24;;;;;;;38.80;20.42;;;;;;;8.14;52.69;101959.03;4877613;29;20056;-67
2022/03/27 00:47:52;;;;;;;35.95;19.95;;;;;;;8.08;52.29;101951.78;4877877;29;20041;-67
2022/03/27 00:50:21;;;;;;;38.60;20.88;;;;;;;8.03;51.60;101949.72;4877736;29;20049;-67
2022/03/27 00:52:49;;;;;;;39.30;20.67;;;;;;;8.01;51.55;101954.56;4876542;29;20420;-67
2022/03/27 00:55:17;;;;;;;38.15;20.75;;;;;;;8.00;51.26;101952.06;4867493;29;20056;-67
2022/03/27 00:57:44;;;;;;;37.67;20.60;;;;;;;7.95;51.54;101944.59;4867271;29;20060;-67
2022/03/27 01:00:38;;;;;;;39.35;21.00;;;;;;;8.10;51.66;101946.06;4880726;29;20052;-67
2022/03/27 01:03:14;;;;;;;45.58;20.60;;;;;;;8.03;51.43;101944.25;4880903;29;20041;-67
2022/03/27 01:05:44;;;;;;;36.67;20.92;;;;;;;8.03;51.02;101944.25;4880938;29;20064;-67
2022/03/27 01:08:13;;;;;;;38.22;19.73;;;;;;;8.01;51.73;101949.13;4881022;29;20084;-67
2022/03/27 01:10:42;;;;;;;38.13;20.98;;;;;;;7.94;51.42;101937.47;4880928;29;20065;-67
2022/03/27 01:13:15;;;;;;;38.95;20.63;;;;;;;7.94;51.04;101935.56;4880681;29;20052;-67
2022/03/27 01:15:45;;;;;;;36.92;19.30;;;;;;;7.92;51.51;101940.44;4880901;29;20052;-67
2022/03/27 01:18:13;;;;;;;37.50;20.60;;;;;;;7.93;51.28;101935.81;4875195;29;20056;-67
2022/03/27 01:20:41;;;;;;;44.13;21.35;;;;;;;8.00;51.38;101933.00;4871006;29;20397;-67
2022/03/27 01:23:13;;;;;;;36.65;20.50;;;;;;;8.03;50.60;101936.09;4880763;29;20454;-67
2022/03/27 01:25:44;;;;;;;40.78;20.73;;;;;;;8.16;50.02;101926.09;4880468;29;20053;-67
2022/03/27 01:28:14;;;;;;;37.60;20.58;;;;;;;8.07;50.95;101920.13;4878159;29;20054;-67
2022/03/27 01:30:42;;;;;;;37.17;19.58;;;;;;;8.11;49.92;101921.31;4880284;29;20056;-67
2022/03/27 01:33:10;;;;;;;40.22;20.48;;;;;;;8.05;50.75;101923.06;4880369;29;20060;-67
2022/03/27 01:35:38;;;;;;;39.53;20.45;;;;;;;8.05;50.25;101917.63;4880309;29;20053;-67
2022/03/27 01:38:05;;;;;;;40.28;20.10;;;;;;;8.04;50.87;101926.03;4880485;29;20060;-67
2022/03/27 01:40:34;;;;;;;40.50;20.77;;;;;;;7.93;51.27;101922.19;4865674;29;20067;-67
2022/03/27 01:43:02;;;;;;;36.88;19.73;;;;;;;7.84;51.49;101918.09;4880208;29;20053;-67
2022/03/27 01:45:31;;;;;;;38.85;20.00;;;;;;;7.75;51.92;101923.88;4878304;29;20497;-67
2022/03/27 01:47:59;;;;;;;39.25;20.38;;;;;;;7.68;51.31;101919.53;4879701;29;20404;-67
2022/03/27 01:50:27;;;;;;;36.63;18.90;;;;;;;7.68;51.73;101912.22;4880369;29;20523;-67
2022/03/27 01:52:55;;;;;;;36.92;19.63;;;;;;;7.72;51.84;101923.50;4880094;29;20566;-67
2022/03/27 01:55:23;;;;;;;37.88;19.52;;;;;;;7.69;51.21;101918.47;4868999;29;20069;-67
2022/03/27 01:57:51;;;;;;;37.85;20.63;;;;;;;7.65;51.83;101913.50;4877813;29;20056;-67
2022/03/27 02:00:19;;;;;;;36.80;20.40;;;;;;;7.62;51.79;101915.84;4870194;29;20502;-67
2022/03/27 02:02:47;;;;;;;38.50;19.75;;;;;;;7.54;52.09;101922.44;4876541;29;20063;-67
2022/03/27 02:05:15;;;;;;;40.22;19.58;;;;;;;7.46;52.15;101919.97;4879227;29;20049;-67
2022/03/27 02:07:48;;;;;;;37.47;20.23;;;;;;;7.40;53.20;101927.19;4879661;29;20056;-67
2022/03/27 02:10:18;;;;;;;39.30;19.50;;;;;;;7.32;53.47;101920.13;4875487;29;20064;-67
2022/03/27 02:12:46;;;;;;;39.78;19.30;;;;;;;7.30;53.61;101918.69;4872620;29;20064;-67
2022/03/27 02:15:14;;;;;;;34.03;18.48;;;;;;;7.28;53.63;101920.81;4863613;29;20060;-67
2022/03/27 02:17:41;;;;;;;35.35;18.38;;;;;;;7.26;53.70;101916.44;4866077;29;20050;-67
2022/03/27 02:20:10;;;;;;;34.00;19.40;;;;;;;7.25;53.59;101916.66;4872924;29;20056;-67
2022/03/27 02:22:38;;;;;;;40.00;20.70;;;;;;;7.24;53.19;101921.25;4872241;29;20066;-67
2022/03/27 02:25:07;;;;;;;37.35;18.15;;;;;;;7.22;53.25;101925.25;4867696;29;20057;-67
2022/03/27 02:27:34;;;;;;;39.78;20.17;;;;;;;7.23;53.48;101927.75;4864736;29;20076;-67
2022/03/27 02:30:03;;;;;;;36.78;18.88;;;;;;;7.19;53.87;101925.72;4868544;29;20053;-67
2022/03/27 02:32:31;;;;;;;33.13;17.75;;;;;;;7.13;54.18;101924.69;4873472;29;20536;-67
2022/03/27 02:34:59;;;;;;;41.17;18.67;;;;;;;7.10;54.25;101917.00;4866370;29;20065;-67
2022/03/27 02:37:28;;;;;;;35.78;18.75;;;;;;;7.07;54.27;101918.28;4867235;29;20057;-67
2022/03/27 02:39:55;;;;;;;36.47;19.25;;;;;;;7.04;54.69;101917.88;4869043;29;20493;-67
2022/03/27 02:42:23;;;;;;;32.80;17.92;;;;;;;7.01;54.70;101926.47;4863463;29;20049;-67
2022/03/27 02:44:51;;;;;;;31.25;17.73;;;;;;;7.01;55.17;101918.31;4865268;29;20057;-67
2022/03/27 02:47:19;;;;;;;36.35;19.20;;;;;;;6.98;55.03;101928.59;4874821;29;20134;-67
2022/03/27 02:49:47;;;;;;;36.53;18.25;;;;;;;6.96;54.95;101921.72;4870375;29;20055;-67
2022/03/27 02:52:16;;;;;;;30.92;17.45;;;;;;;6.93;54.85;101917.53;4869072;29;20060;-66
2022/03/27 02:54:44;;;;;;;30.83;17.70;;;;;;;6.92;55.04;101925.94;4860063;29;20512;-67
2022/03/27 02:57:12;;;;;;;33.88;17.35;;;;;;;6.89;54.67;101927.19;4866513;29;20053;-68
2022/03/27 02:59:40;;;;;;;36.88;18.92;;;;;;;6.91;55.12;101925.13;4862921;29;20052;-68
2022/03/27 03:02:08;;;;;;;36.08;17.75;;;;;;;6.88;55.03;101924.72;4863621;29;20524;-68
2022/03/27 03:04:36;;;;;;;32.25;17.20;;;;;;;6.85;55.24;101931.44;4869240;29;20056;-68
2022/03/27 03:07:05;;;;;;;30.65;17.50;;;;;;;6.82;53.96;101918.25;4867011;29;20049;-67
2022/03/27 03:09:33;;;;;;;31.42;17.83;;;;;;;6.83;53.63;101933.53;4866666;29;20057;-67
2022/03/27 03:12:01;;;;;;;33.75;16.80;;;;;;;6.82;53.80;101926.44;4863602;29;20054;-67
2022/03/27 03:14:29;;;;;;;36.30;18.20;;;;;;;6.82;53.99;101929.16;4866126;29;20395;-67
2022/03/27 03:16:58;;;;;;;35.00;17.90;;;;;;;6.81;54.45;101927.50;4863130;29;20425;-67
2022/03/27 03:19:28;;;;;;;36.83;16.83;;;;;;;6.81;55.14;101938.38;4871427;29;20390;-68
2022/03/27 03:21:56;;;;;;;34.25;17.27;;;;;;;6.77;54.98;101934.41;4862984;29;20442;-67
2022/03/27 03:24:26;;;;;;;32.90;15.82;;;;;;;6.72;55.07;101926.94;4865114;29;20046;-67
2022/03/27 03:26:55;;;;;;;29.20;16.35;;;;;;;6.68;55.41;101931.97;4863088;29;20401;-67
2022/03/27 03:29:23;;;;;;;33.63;16.77;;;;;;;6.71;55.21;101936.97;4865179;29;20053;-67
2022/03/27 03:31:51;;;;;;;36.20;17.77;;;;;;;6.74;55.60;101941.13;4874170;29;20041;-68
2022/03/27 03:34:19;;;;;;;33.47;17.42;;;;;;;6.69;55.24;101939.09;4868625;29;20076;-67
2022/03/27 03:37:17;;;;;;;36.30;17.70;;;;;;;6.65;55.49;101937.84;4865353;29;20053;-67
2022/03/27 03:40:09;;;;;;;29.45;16.27;;;;;;;6.62;55.57;101942.91;4862798;29;20058;-68
2022/03/27 03:42:37;;;;;;;35.03;16.80;;;;;;;6.58;55.42;101948.78;4862446;29;20060;-68
2022/03/27 03:45:05;;;;;;;32.50;17.80;;;;;;;6.55;55.76;101948.41;4866251;29;20148;-67
2022/03/27 03:47:33;;;;;;;35.28;16.27;;;;;;;6.58;55.43;101946.06;4867208;29;20057;-67
2022/03/27 03:50:02;;;;;;;34.92;17.38;;;;;;;6.56;55.52;101950.06;4864251;29;20500;-68
2022/03/27 03:52:30;;;;;;;35.80;16.77;;;;;;;6.56;55.94;101959.03;4864368;29;20053;-67
2022/03/27 03:54:58;;;;;;;33.17;16.00;;;;;;;6.52;55.90;101955.09;4863525;29;20053;-67
2022/03/27 03:57:26;;;;;;;31.30;16.08;;;;;;;6.47;55.91;101967.69;4864339;29;20413;-67
2022/03/27 03:59:54;;;;;;;32.00;16.45;;;;;;;6.42;56.38;101957.47;4865801;29;20044;-67
2022/03/27 04:02:21;;;;;;;34.13;16.65;;;;;;;6.39;56.69;101955.16;4866200;29;20060;-67
2022/03/27 04:04:50;;;;;;;32.88;16.85;;;;;;;6.31;56.72;101948.13;4865704;29;20492;-67
2022/03/27 04:07:18;;;;;;;38.03;18.05;;;;;;;6.27;56.67;101953.13;4863873;29;20064;-67
2022/03/27 04:09:45;;;;;;;31.08;17.23;;;;;;;6.33;57.15;101954.16;4861536;29;20046;-67
2022/03/27 04:12:14;;;;;;;33.17;17.63;;;;;;;6.54;55.97;101949.44;4866332;29;20057;-67
2022/03/27 04:14:42;;;;;;;30.92;17.33;;;;;;;6.49;56.90;101944.66;4865500;29;20598;-67
2022/03/27 04:17:11;;;;;;;32.67;16.85;;;;;;;6.41;57.60;101948.44;4862479;29;20057;-67
2022/03/27 04:19:40;;;;;;;28.23;15.98;;;;;;;6.50;57.18;101957.19;4864870;29;20084;-67
2022/03/27 04:22:09;;;;;;;33.13;17.02;;;;;;;6.62;57.08;101945.63;4867883;29;20045;-67
2022/03/27 04:24:36;;;;;;;33.75;17.13;;;;;;;6.49;57.86;101949.28;4864538;29;20411;-67
2022/03/27 04:27:04;;;;;;;32.30;17.92;;;;;;;6.36;58.23;101951.00;4864017;29;20052;-67
2022/03/27 04:29:32;;;;;;;36.95;17.70;;;;;;;6.32;58.86;101957.94;4864222;29;20061;-67
2022/03/27 04:32:00;;;;;;;36.90;17.08;;;;;;;6.25;59.91;101966.13;4865966;29;20060;-67
2022/03/27 04:34:28;;;;;;;36.08;17.90;;;;;;;6.21;59.06;101966.78;4866107;29;20061;-68
2022/03/27 04:36:56;;;;;;;35.42;18.15;;;;;;;6.10;59.85;101971.81;4864722;29;20461;-67
2022/03/27 04:39:24;;;;;;;36.65;17.55;;;;;;;6.10;59.51;101971.81;4867500;29;20053;-67
2022/03/27 04:41:51;;;;;;;33.55;17.38;;;;;;;6.15;58.75;101963.88;4869519;29;20064;-67
2022/03/27 04:44:19;;;;;;;28.27;16.67;;;;;;;6.09;59.19;101972.88;4867637;29;20049;-67
2022/03/27 04:46:47;;;;;;;32.90;17.88;;;;;;;6.13;58.38;101963.25;4875459;29;20053;-67
2022/03/27 04:49:15;;;;;;;35.47;18.73;;;;;;;6.23;57.97;101964.66;4869013;29;20056;-67
2022/03/27 04:51:43;;;;;;;33.97;17.40;;;;;;;6.12;57.51;101956.13;4874499;29;20607;-67
2022/03/27 04:54:11;;;;;;;34.65;17.27;;;;;;;6.01;57.88;101962.22;4870321;29;20081;-67
2022/03/27 04:56:39;;;;;;;29.23;16.80;;;;;;;5.89;57.35;101962.03;4866190;29;20054;-67
2022/03/27 04:59:06;;;;;;;34.30;17.48;;;;;;;5.83;57.85;101973.78;4868482;29;20410;-67
2022/03/27 05:01:34;;;;;;;33.50;17.63;;;;;;;5.83;57.91;101979.22;4878080;29;20060;-67
2022/03/27 05:04:03;;;;;;;31.77;16.33;;;;;;;5.75;57.72;101975.69;4873895;29;20521;-67
2022/03/27 05:06:31;;;;;;;32.78;17.52;;;;;;;5.74;58.01;101978.59;4877433;29;20504;-67
2022/03/27 05:08:59;;;;;;;36.97;17.13;;;;;;;5.70;58.72;101975.47;4867717;29;20509;-67
2022/03/27 05:11:28;;;;;;;31.73;17.58;;;;;;;5.72;58.02;101984.25;4865172;29;20527;-67
2022/03/27 05:13:56;;;;;;;32.88;17.90;;;;;;;5.74;58.61;101982.16;4876502;29;20497;-67
2022/03/27 05:16:24;;;;;;;33.13;18.13;;;;;;;5.82;58.20;101981.06;4864493;29;20061;-67
2022/03/27 05:18:52;;;;;;;37.65;19.20;;;;;;;5.83;57.96;101980.06;4867469;29;20519;-67
2022/03/27 05:21:21;;;;;;;37.10;18.10;;;;;;;5.86;58.02;101987.75;4867807;29;20053;-66
2022/03/27 05:23:49;;;;;;;35.60;17.83;;;;;;;5.89;58.55;101987.34;4876947;29;20390;-67
2022/03/27 05:26:17;;;;;;;37.28;18.73;;;;;;;5.97;58.41;101990.88;4861567;29;20049;-67
2022/03/27 05:28:45;;;;;;;37.33;18.45;;;;;;;6.27;57.25;101984.94;4877884;29;20041;-67
2022/03/27 05:31:14;;;;;;;36.95;19.73;;;;;;;6.40;56.95;101998.47;4868553;29;20046;-67
2022/03/27 05:33:42;;;;;;;34.00;18.05;;;;;;;6.47;56.95;101994.88;4877217;29;20404;-67
2022/03/27 05:36:10;;;;;;;36.55;18.15;;;;;;;6.41;57.14;101996.59;4868249;29;20049;-67
2022/03/27 05:38:40;;;;;;;43.67;19.73;;;;;;;6.37;57.01;102006.22;4866332;29;20049;-67
2022/03/27 05:41:09;;;;;;;37.88;18.88;;;;;;;6.40;57.31;102011.25;4867665;29;20501;-67
2022/03/27 05:43:37;;;;;;;38.22;17.70;;;;;;;6.46;57.42;102007.66;4876232;29;20056;-67
2022/03/27 05:46:05;;;;;;;37.70;18.63;;;;;;;6.85;55.44;102007.63;4866663;29;20052;-67
2022/03/27 05:48:35;;;;;;;33.63;18.90;;;;;;;7.13;54.42;101998.19;4866966;29;20057;-79
2022/03/27 05:51:05;;;;;;;38.22;18.77;;;;;;;7.30;54.37;102003.94;4870007;29;20504;-67
2022/03/27 05:53:34;;;;;;;35.53;18.90;;;;;;;7.59;53.58;102006.19;4872893;29;20512;-67
2022/03/27 05:56:02;;;;;;;33.75;16.98;;;;;;;7.74;53.50;102012.13;4863441;29;20056;-67
2022/03/27 05:58:30;;;;;;;35.47;18.80;;;;;;;7.76;53.03;102018.19;4861011;29;20057;-67
2022/03/27 06:00:58;;;;;;;35.65;18.73;;;;;;;7.87;52.83;102018.50;4861559;29;20497;-67
2022/03/27 06:03:27;;;;;;;35.85;18.40;;;;;;;8.10;52.43;102016.97;4874607;29;20080;-67
2022/03/27 06:05:55;;;;;;;37.85;19.27;;;;;;;8.33;51.83;102022.56;4865591;29;20056;-67
2022/03/27 06:08:23;;;;;;;39.05;19.42;;;;;;;8.47;51.15;102030.59;4868465;29;20050;-67
2022/03/27 06:10:51;;;;;;;35.75;18.58;;;;;;;8.72;50.34;102026.94;4865672;29;20064;-67
2022/03/27 06:13:19;;;;;;;33.55;18.50;;;;;;;8.71;50.81;102026.09;4869496;29;20053;-67
2022/03/27 06:15:50;;;;;;;32.28;17.33;;;;;;;8.97;49.69;102025.94;4873538;29;20068;-67
2022/03/27 06:18:18;;;;;;;32.78;19.13;;;;;;;9.04;48.68;102028.56;4869417;29;20076;-67
2022/03/27 06:20:46;;;;;;;37.38;18.85;;;;;;;9.18;47.70;102037.41;4868106;29;20060;-67
2022/03/27 06:23:14;;;;;;;40.40;20.13;;;;;;;9.50;46.39;102034.34;4867846;29;20045;-67
2022/03/27 06:25:42;;;;;;;40.20;19.30;;;;;;;9.82;46.44;102043.00;4862664;29;20501;-67
2022/03/27 06:28:10;;;;;;;36.38;19.02;;;;;;;10.10;45.80;102046.06;4866052;29;20061;-66
2022/03/27 06:30:38;;;;;;;35.90;19.48;;;;;;;9.83;45.02;102046.59;4865378;29;20046;-67
2022/03/27 06:33:07;;;;;;;33.88;18.85;;;;;;;9.88;45.33;102041.22;4868972;29;20072;-67
2022/03/27 06:35:37;;;;;;;33.45;18.85;;;;;;;9.77;45.74;102061.19;4866158;29;20053;-67
2022/03/27 06:38:05;;;;;;;36.20;18.90;;;;;;;9.80;44.59;102052.53;4869037;29;20053;-67
2022/03/27 06:40:33;;;;;;;37.20;19.25;;;;;;;10.13;43.81;102050.22;4866861;29;20053;-68
2022/03/27 06:43:04;;;;;;;32.33;18.73;;;;;;;10.39;43.59;102050.75;4864524;29;20513;-68
2022/03/27 06:45:32;;;;;;;30.95;17.73;;;;;;;11.18;41.43;102057.47;4864584;29;20057;-68
2022/03/27 06:48:00;;;;;;;38.97;19.98;;;;;;;11.50;40.56;102059.66;4866580;29;20049;-68
2022/03/27 06:50:28;;;;;;;33.97;17.95;;;;;;;11.39;40.51;102046.84;4861213;29;20060;-67
2022/03/27 06:52:56;;;;;;;27.88;17.45;;;;;;;11.64;40.17;102053.81;4864324;29;20136;-68
2022/03/27 06:55:27;;;;;;;30.30;17.17;;;;;;;11.93;40.20;102059.19;4865848;29;20424;-67
2022/03/27 06:57:56;;;;;;;32.72;17.88;;;;;;;11.86;40.16;102056.59;4866135;29;20520;-67
2022/03/27 07:03:10;;;;;;;28.98;17.10;;;;;;;12.67;38.35;102064.50;4871581;29;20049;-68
2022/03/27 07:05:41;;;;;;;30.90;17.95;;;;;;;12.95;36.42;102057.94;4870655;29;20063;-68
2022/03/27 07:08:13;;;;;;;29.80;17.10;;;;;;;12.95;37.96;102054.38;4860341;29;20033;-68
2022/03/27 07:10:43;;;;;;;35.60;18.33;;;;;;;12.96;37.80;102067.00;4866293;29;20056;-68
2022/03/27 07:13:13;;;;;;;28.73;15.52;;;;;;;13.24;38.33;102056.84;4870068;29;20424;-79
2022/03/27 07:15:43;;;;;;;33.20;18.45;;;;;;;13.26;37.34;102060.13;4850091;29;20057;-78
2022/03/27 07:18:12;;;;;;;32.58;18.83;;;;;;;13.11;37.75;102061.66;4856200;29;20064;-78
2022/03/27 07:20:41;;;;;;;32.22;18.75;;;;;;;13.17;37.90;102062.53;4858779;29;20409;-80
2022/03/27 07:23:12;;;;;;;31.33;17.92;;;;;;;13.07;38.12;102063.28;4857609;29;20053;-79
2022/03/27 07:25:43;;;;;;;32.75;18.60;;;;;;;13.20;38.25;102066.69;4855524;29;20050;-78
2022/03/27 07:28:12;;;;;;;33.63;19.50;;;;;;;13.22;37.79;102070.00;4858027;29;20057;-78
2022/03/27 07:30:42;;;;;;;36.97;19.17;;;;;;;13.26;38.71;102066.44;4860659;29;20516;-78
2022/03/27 07:33:11;;;;;;;32.45;19.17;;;;;;;13.50;37.84;102074.38;4845219;29;20059;-77
2022/03/27 07:35:39;;;;;;;32.53;18.35;;;;;;;13.52;38.19;102074.13;4857359;29;20056;-77
2022/03/27 07:38:09;;;;;;;32.67;18.95;;;;;;;13.67;37.35;102066.00;4855870;29;20056;-79
2022/03/27 07:40:37;;;;;;;31.10;19.05;;;;;;;13.69;37.94;102077.53;4851776;29;20064;-79
2022/03/27 07:43:05;;;;;;;31.02;17.58;;;;;;;13.94;37.86;102070.53;4846506;29;20061;-79
2022/03/27 07:45:35;;;;;;;34.72;19.58;;;;;;;14.15;36.01;102075.34;4847177;29;20065;-77
2022/03/27 07:48:04;;;;;;;34.28;18.75;;;;;;;14.17;36.39;102071.22;4852806;29;20057;-78
2022/03/27 07:50:33;;;;;;;32.33;18.42;;;;;;;14.20;36.87;102072.63;4857396;29;20054;-79
2022/03/27 07:53:03;;;;;;;32.47;18.73;;;;;;;14.23;36.93;102072.09;4845713;29;20496;-79
2022/03/27 07:55:32;;;;;;;33.70;20.42;;;;;;;14.26;37.13;102067.97;4850757;29;20056;-79
2022/03/27 07:58:01;;;;;;;33.10;19.77;;;;;;;14.39;38.03;102075.72;4853183;29;20545;-81
2022/03/27 08:00:29;;;;;;;39.90;21.55;;;;;;;14.41;37.69;102081.78;4851809;29;20046;-80
2022/03/27 08:02:58;;;;;;;38.05;20.08;;;;;;;14.46;37.94;102075.47;4836518;29;20045;-81
2022/03/27 08:05:26;;;;;;;33.40;20.23;;;;;;;14.59;38.10;102072.22;4849592;29;20510;-80
2022/03/27 08:07:55;;;;;;;40.10;22.17;;;;;;;14.67;37.98;102079.16;4839956;29;20106;-80
2022/03/27 08:10:23;;;;;;;36.55;21.88;;;;;;;14.81;38.27;102081.41;4860717;29;20049;-80
2022/03/27 08:12:52;;;;;;;40.97;23.85;;;;;;;14.88;37.22;102081.97;4858780;29;20069;-80
2022/03/27 08:15:21;;;;;;;37.15;21.25;;;;;;;14.87;36.64;102091.34;4838012;29;20057;-81
2022/03/27 08:17:53;;;;;;;36.92;22.33;;;;;;;15.07;36.97;102079.53;4852365;29;20072;-80
2022/03/27 08:20:25;;;;;;;35.95;21.45;;;;;;;15.03;35.87;102081.16;4859129;29;20050;-81
2022/03/27 08:22:54;;;;;;;38.05;20.95;;;;;;;15.08;35.67;102083.09;4853335;29;20054;-80
2022/03/27 08:28:10;;;;;;;34.58;21.05;;;;;;;15.34;35.17;102089.47;4851754;29;20049;-79
2022/03/27 08:30:39;;;;;;;33.65;19.77;;;;;;;15.46;34.71;102086.44;4848284;29;20136;-79
2022/03/27 08:33:08;;;;;;;37.53;19.75;;;;;;;15.57;33.79;102092.78;4839039;29;20054;-78
2022/03/27 08:35:41;;;;;;;35.78;19.88;;;;;;;15.65;33.60;102094.16;4842941;29;20072;-79
2022/03/27 08:38:16;;;;;;;33.67;20.05;;;;;;;15.53;33.64;102091.66;4862601;29;20060;-79
2022/03/27 08:40:55;;;;;;;33.40;19.45;;;;;;;15.67;32.38;102097.44;4847490;29;20045;-79
2022/03/27 08:43:24;;;;;;;35.77;21.23;;;;;;;15.91;33.48;102092.19;4859543;29;20045;-79
2022/03/27 08:45:52;;;;;;;39.40;21.02;;;;;;;15.88;33.46;102100.19;4862306;29;20052;-79
2022/03/27 08:48:21;;;;;;;33.97;20.42;;;;;;;15.91;33.12;102097.69;4855099;29;20056;-78
2022/03/27 08:51:07;;;;;;;36.78;21.00;;;;;;;16.06;32.62;102096.88;4855788;29;20060;-78
2022/03/27 08:53:56;;;;;;;36.60;20.73;;;;;;;16.16;32.88;102098.78;4869614;29;20064;-77
2022/03/27 08:56:25;;;;;;;34.83;19.90;;;;;;;16.22;31.72;102091.28;4833715;29;20064;-78
2022/03/27 08:59:04;;;;;;;35.60;19.92;;;;;;;16.33;31.62;102090.13;4861368;29;20049;-79
2022/03/27 09:01:33;;;;;;;34.20;20.10;;;;;;;16.39;31.59;102099.25;4842199;29;20069;-78
2022/03/27 09:04:02;;;;;;;32.03;20.35;;;;;;;16.65;31.63;102094.44;4860436;29;20045;-79
2022/03/27 09:06:30;;;;;;;34.47;20.00;;;;;;;16.49;31.62;102095.63;4851584;29;20050;-78
2022/03/27 09:08:58;;;;;;;30.42;19.60;;;;;;;16.73;31.26;102100.47;4839240;29;20053;-79
2022/03/27 09:11:32;;;;;;;31.45;19.80;;;;;;;16.81;30.81;102097.09;4862055;29;20056;-79
2022/03/27 09:14:03;;;;;;;31.70;19.77;;;;;;;16.83;30.48;102103.19;4845793;29;20045;-79
2022/03/27 09:17:00;;;;;;;32.40;19.70;;;;;;;16.77;31.50;102098.78;4862270;29;20481;-79
2022/03/27 09:19:39;;;;;;;34.22;20.55;;;;;;;16.93;30.82;102096.75;4862867;29;20060;-79
2022/03/27 09:22:13;;;;;;;35.78;21.55;;;;;;;16.95;29.71;102091.75;4853159;29;20045;-79
2022/03/27 09:24:46;;;;;;;31.98;19.90;;;;;;;16.95;31.39;102094.53;4861981;29;20049;-78
2022/03/27 09:27:15;;;;;;;31.92;20.45;;;;;;;17.00;31.36;102100.03;4846346;29;20057;-79
2022/03/27 09:30:00;;;;;;;33.22;21.08;;;;;;;16.96;30.63;102095.38;4856653;29;20057;-79
2022/03/27 09:32:31;;;;;;;35.72;21.13;;;;;;;16.99;30.96;102101.16;4845496;29;20049;-77
2022/03/27 09:35:05;;;;;;;37.10;19.92;;;;;;;17.19;30.77;102100.22;4857871;29;20053;-77
2022/03/27 09:37:38;;;;;;;32.40;19.85;;;;;;;17.59;29.91;102099.31;4848545;29;20091;-77
2022/03/27 09:40:08;;;;;;;32.85;20.13;;;;;;;17.54;30.44;102091.09;4832797;29;20045;-77
2022/03/27 09:42:38;;;;;;;38.00;20.45;;;;;;;17.76;29.58;102092.53;4852673;29;20061;-77
2022/03/27 09:45:19;;;;;;;32.72;19.45;;;;;;;17.75;29.27;102097.25;4857810;29;20049;-77
2022/03/27 09:47:55;;;;;;;34.75;20.15;;;;;;;17.80;28.81;102097.19;4853470;29;20045;-78
2022/03/27 09:50:36;;;;;;;32.05;20.05;;;;;;;17.96;29.46;102092.31;4847198;29;20041;-78
2022/03/27 09:53:24;;;;;;;33.03;20.50;;;;;;;18.10;29.14;102088.88;4844264;29;20045;-78
2022/03/27 09:55:53;;;;;;;31.05;19.35;;;;;;;18.15;28.97;102088.00;4857613;29;20052;-78
2022/03/27 09:58:41;;;;;;;32.50;19.42;;;;;;;18.39;27.97;102082.44;4843756;29;20061;-78
2022/03/27 10:01:18;;;;;;;33.92;20.88;;;;;;;18.27;28.25;102080.91;4841064;29;20655;-78
2022/03/27 10:03:57;;;;;;;35.65;21.05;;;;;;;18.01;27.84;102077.59;4849110;29;20408;-78
2022/03/27 10:06:33;;;;;;;31.88;19.85;;;;;;;18.11;27.85;102073.91;4845268;29;20413;-78
2022/03/27 10:09:03;;;;;;;31.67;19.92;;;;;;;18.14;28.37;102081.63;4850155;29;20060;-78
2022/03/27 10:11:32;;;;;;;31.80;20.15;;;;;;;18.30;28.57;102084.22;4854860;29;20053;-78
2022/03/27 10:14:01;;;;;;;30.40;19.13;;;;;;;18.47;27.51;102079.00;4858426;29;20520;-77
2022/03/27 10:16:34;;;;;;;30.23;19.40;;;;;;;18.68;27.89;102073.19;4851849;29;20064;-77
2022/03/27 10:19:06;;;;;;;29.63;19.67;;;;;;;18.66;27.76;102076.25;4843325;29;20076;-78
2022/03/27 10:21:35;;;;;;;29.75;18.88;;;;;;;18.72;28.26;102074.22;4831650;29;20049;-78
2022/03/27 10:24:13;;;;;;;32.25;21.05;;;;;;;18.87;27.94;102075.13;4842743;29;20049;-77
2022/03/27 10:26:43;;;;;;;33.25;19.90;;;;;;;18.90;27.92;102061.47;4844206;29;20062;-77
2022/03/27 10:29:14;;;;;;;35.38;20.33;;;;;;;18.89;28.35;102062.63;4845438;29;20057;-76
2022/03/27 10:31:42;;;;;;;34.88;19.33;;;;;;;18.96;28.67;102051.13;4842220;29;20057;-75
2022/03/27 10:34:14;;;;;;;31.83;19.85;;;;;;;18.99;27.58;102060.78;4834957;29;20049;-75
2022/03/27 10:37:37;;;;;;;30.45;19.50;;;;;;;19.03;28.24;102050.78;5099042;27;20420;-76
2022/03/27 10:40:15;;;;;;;31.70;21.58;;;;;;;19.04;27.95;102053.25;5093739;28;20048;-75
2022/03/27 10:42:51;;;;;;;31.98;20.00;;;;;;;19.14;28.26;102051.44;5094556;28;20044;-76
2022/03/27 10:45:21;;;;;;;31.92;19.13;;;;;;;19.16;27.59;102051.97;5096740;28;20044;-76
2022/03/27 10:48:20;;;;;;;32.67;20.05;;;;;;;19.42;28.06;102045.97;5086827;28;20047;-76
2022/03/27 10:50:54;;;;;;;32.17;20.05;;;;;;;19.56;27.68;102046.00;5067246;28;20525;-76
2022/03/27 10:53:25;;;;;;;29.75;19.40;;;;;;;19.68;27.29;102037.16;5093850;28;20048;-76
2022/03/27 10:55:54;;;;;;;34.40;20.77;;;;;;;19.84;26.46;102043.25;5087749;28;20051;-76
2022/03/27 10:58:35;;;;;;;33.17;20.05;;;;;;;20.00;26.00;102035.47;5087246;28;20052;-76
2022/03/27 11:01:28;;;;;;;28.25;18.50;;;;;;;20.07;26.16;102024.75;5087651;28;20055;-75
2022/03/27 11:04:13;;;;;;;28.05;18.60;;;;;;;20.34;24.91;102014.72;5083277;28;20036;-76
2022/03/27 11:06:44;;;;;;;30.63;18.08;;;;;;;20.43;24.81;102017.59;5081142;28;20383;-76
2022/03/27 11:09:33;;;;;;;24.27;16.50;;;;;;;20.57;24.13;102017.56;5089456;28;20394;-76
2022/03/27 11:12:31;;;;;;;29.73;16.58;;;;;;;20.62;24.26;102013.84;5087312;28;20040;-76
2022/03/27 11:15:06;;;;;;;28.30;18.13;;;;;;;20.60;24.59;102005.81;5081747;28;20044;-76
2022/03/27 11:17:45;;;;;;;24.98;15.88;;;;;;;20.76;22.86;102002.66;5086070;28;20052;-77
2022/03/27 11:20:25;;;;;;;25.20;15.23;;;;;;;20.89;22.94;102010.16;5086942;28;20044;-77
2022/03/27 11:22:55;;;;;;;25.48;15.43;;;;;;;21.08;23.40;102003.59;5082108;28;20048;-76
2022/03/27 11:25:38;;;;;;;26.45;17.08;;;;;;;21.22;23.71;102006.28;5079174;28;20051;-77
2022/03/27 11:28:13;;;;;;;24.10;15.93;;;;;;;21.37;21.76;101999.50;5074560;28;20048;-77
2022/03/27 11:30:47;;;;;;;22.58;15.15;;;;;;;21.18;21.63;101999.72;5073743;28;20051;-76
2022/03/27 11:33:25;;;;;;;22.42;14.68;;;;;;;21.26;21.36;102003.69;5072983;28;20037;-78
2022/03/27 11:36:02;;;;;;;23.30;15.60;;;;;;;21.28;22.53;102002.22;5071371;28;20037;-78